sensor_id;sensor_type;location;lat;lon;timestamp;pressure;altitude;pressure_sealevel;temperature;humidity
79048;BME280;68680;50.764;6.120;2023-04-24T00:01:20;98013.75;;;9.58;73.12
79048;BME280;68680;50.764;6.120;2023-04-24T00:03:47;98024.44;;;9.63;72.65
79048;BME280;68680;50.764;6.120;2023-04-24T00:06:13;98016.13;;;9.55;71.08
79048;BME280;68680;50.764;6.120;2023-04-24T00:08:39;98020.63;;;9.54;71.54
79048;BME280;68680;50.764;6.120;2023-04-24T00:11:04;98020.88;;;9.53;72.50
79048;BME280;68680;50.764;6.120;2023-04-24T00:13:30;98025.59;;;9.45;71.70
79048;BME280;68680;50.764;6.120;2023-04-24T00:15:56;98039.47;;;9.47;71.72
79048;BME280;68680;50.764;6.120;2023-04-24T00:18:21;98029.56;;;9.43;71.81
79048;BME280;68680;50.764;6.120;2023-04-24T00:20:48;98028.91;;;9.31;72.50
79048;BME280;68680;50.764;6.120;2023-04-24T00:23:14;98035.22;;;9.25;71.80
79048;BME280;68680;50.764;6.120;2023-04-24T00:25:39;98045.50;;;9.16;71.55
79048;BME280;68680;50.764;6.120;2023-04-24T00:28:05;98041.88;;;9.00;72.22
79048;BME280;68680;50.764;6.120;2023-04-24T00:30:31;98050.84;;;8.94;73.04
79048;BME280;68680;50.764;6.120;2023-04-24T00:32:57;98057.94;;;8.89;72.20
79048;BME280;68680;50.764;6.120;2023-04-24T00:35:22;98055.41;;;8.77;71.58
79048;BME280;68680;50.764;6.120;2023-04-24T00:37:49;98058.75;;;8.68;71.41
79048;BME280;68680;50.764;6.120;2023-04-24T00:40:15;98047.22;;;8.62;72.89
79048;BME280;68680;50.764;6.120;2023-04-24T00:42:41;98061.75;;;8.54;72.24
79048;BME280;68680;50.764;6.120;2023-04-24T00:45:09;98067.16;;;8.43;72.73
79048;BME280;68680;50.764;6.120;2023-04-24T00:47:34;98078.25;;;8.40;72.44
79048;BME280;68680;50.764;6.120;2023-04-24T00:50:01;98059.13;;;8.38;73.91
79048;BME280;68680;50.764;6.120;2023-04-24T00:52:26;98063.06;;;8.35;74.10
79048;BME280;68680;50.764;6.120;2023-04-24T00:54:53;98054.41;;;8.28;72.44
79048;BME280;68680;50.764;6.120;2023-04-24T00:57:19;98059.41;;;8.24;72.77
79048;BME280;68680;50.764;6.120;2023-04-24T00:59:45;98063.41;;;8.27;73.93
79048;BME280;68680;50.764;6.120;2023-04-24T01:02:11;98060.91;;;8.32;73.13
79048;BME280;68680;50.764;6.120;2023-04-24T01:04:38;98065.63;;;8.30;74.01
79048;BME280;68680;50.764;6.120;2023-04-24T01:07:04;98062.88;;;8.25;73.52
79048;BME280;68680;50.764;6.120;2023-04-24T01:09:30;98062.81;;;8.37;73.99
79048;BME280;68680;50.764;6.120;2023-04-24T01:11:57;98055.16;;;8.23;73.87
79048;BME280;68680;50.764;6.120;2023-04-24T01:14:23;98061.72;;;8.33;73.21
79048;BME280;68680;50.764;6.120;2023-04-24T01:16:48;98056.25;;;8.27;74.27
79048;BME280;68680;50.764;6.120;2023-04-24T01:19:15;98063.78;;;8.31;73.59
79048;BME280;68680;50.764;6.120;2023-04-24T01:21:42;98050.00;;;8.34;73.69
79048;BME280;68680;50.764;6.120;2023-04-24T01:24:09;98062.00;;;8.36;73.66
79048;BME280;68680;50.764;6.120;2023-04-24T01:26:35;98055.00;;;8.30;73.48
79048;BME280;68680;50.764;6.120;2023-04-24T01:29:01;98055.59;;;8.32;73.92
79048;BME280;68680;50.764;6.120;2023-04-24T01:31:27;98056.41;;;8.33;73.57
79048;BME280;68680;50.764;6.120;2023-04-24T01:33:53;98050.94;;;8.27;73.43
79048;BME280;68680;50.764;6.120;2023-04-24T01:36:19;98047.63;;;8.32;73.48
79048;BME280;68680;50.764;6.120;2023-04-24T01:38:46;98059.34;;;8.36;73.83
79048;BME280;68680;50.764;6.120;2023-04-24T01:41:13;98050.34;;;8.37;74.33
79048;BME280;68680;50.764;6.120;2023-04-24T01:43:39;98056.75;;;8.24;73.09
79048;BME280;68680;50.764;6.120;2023-04-24T01:46:05;98058.47;;;8.31;73.79
79048;BME280;68680;50.764;6.120;2023-04-24T01:48:31;98059.81;;;8.33;73.44
79048;BME280;68680;50.764;6.120;2023-04-24T01:50:57;98056.03;;;8.29;73.22
79048;BME280;68680;50.764;6.120;2023-04-24T01:53:22;98048.50;;;8.38;73.86
79048;BME280;68680;50.764;6.120;2023-04-24T01:55:48;98060.16;;;8.37;73.65
79048;BME280;68680;50.764;6.120;2023-04-24T01:58:15;98054.69;;;8.27;73.92
79048;BME280;68680;50.764;6.120;2023-04-24T02:00:41;98057.56;;;8.25;73.43
79048;BME280;68680;50.764;6.120;2023-04-24T02:03:06;98052.72;;;8.22;73.60
79048;BME280;68680;50.764;6.120;2023-04-24T02:05:32;98050.66;;;8.24;73.38
79048;BME280;68680;50.764;6.120;2023-04-24T02:07:57;98054.50;;;8.16;73.28
79048;BME280;68680;50.764;6.120;2023-04-24T02:10:23;98058.31;;;8.20;73.72
79048;BME280;68680;50.764;6.120;2023-04-24T02:12:48;98055.16;;;8.23;73.33
79048;BME280;68680;50.764;6.120;2023-04-24T02:15:15;98062.22;;;8.18;73.12
79048;BME280;68680;50.764;6.120;2023-04-24T02:17:41;98058.53;;;8.19;73.32
79048;BME280;68680;50.764;6.120;2023-04-24T02:20:07;98062.00;;;8.19;73.30
79048;BME280;68680;50.764;6.120;2023-04-24T02:22:33;98054.91;;;8.25;73.90
79048;BME280;68680;50.764;6.120;2023-04-24T02:24:58;98057.72;;;8.18;74.13
79048;BME280;68680;50.764;6.120;2023-04-24T02:27:24;98051.69;;;8.23;74.70
79048;BME280;68680;50.764;6.120;2023-04-24T02:29:49;98047.09;;;8.18;73.49
79048;BME280;68680;50.764;6.120;2023-04-24T02:32:16;98051.63;;;8.18;74.06
79048;BME280;68680;50.764;6.120;2023-04-24T02:34:42;98049.69;;;8.13;73.92
79048;BME280;68680;50.764;6.120;2023-04-24T02:37:08;98053.22;;;8.19;74.04
79048;BME280;68680;50.764;6.120;2023-04-24T02:39:33;98062.41;;;8.11;74.86
79048;BME280;68680;50.764;6.120;2023-04-24T02:41:59;98051.31;;;8.14;75.28
79048;BME280;68680;50.764;6.120;2023-04-24T02:44:24;98059.97;;;8.10;75.02
79048;BME280;68680;50.764;6.120;2023-04-24T02:46:50;98049.28;;;8.05;74.50
79048;BME280;68680;50.764;6.120;2023-04-24T02:49:17;98049.84;;;8.07;74.69
79048;BME280;68680;50.764;6.120;2023-04-24T02:51:43;98050.81;;;8.01;74.24
79048;BME280;68680;50.764;6.120;2023-04-24T02:54:08;98050.31;;;8.04;74.53
79048;BME280;68680;50.764;6.120;2023-04-24T02:56:34;98058.06;;;8.05;75.14
79048;BME280;68680;50.764;6.120;2023-04-24T02:59:00;98062.88;;;8.08;75.23
79048;BME280;68680;50.764;6.120;2023-04-24T03:01:25;98053.63;;;8.11;75.18
79048;BME280;68680;50.764;6.120;2023-04-24T03:03:51;98055.47;;;8.10;75.33
79048;BME280;68680;50.764;6.120;2023-04-24T03:06:18;98068.50;;;8.12;75.34
79048;BME280;68680;50.764;6.120;2023-04-24T03:08:43;98071.09;;;8.07;75.00
79048;BME280;68680;50.764;6.120;2023-04-24T03:11:09;98068.44;;;8.07;76.19
79048;BME280;68680;50.764;6.120;2023-04-24T03:13:34;98070.06;;;8.08;75.27
79048;BME280;68680;50.764;6.120;2023-04-24T03:16:00;98063.59;;;8.04;75.05
79048;BME280;68680;50.764;6.120;2023-04-24T03:18:26;98065.78;;;8.07;75.93
79048;BME280;68680;50.764;6.120;2023-04-24T03:20:51;98060.78;;;7.94;76.55
79048;BME280;68680;50.764;6.120;2023-04-24T03:23:18;98058.13;;;7.94;76.88
79048;BME280;68680;50.764;6.120;2023-04-24T03:25:44;98055.31;;;7.83;76.54
79048;BME280;68680;50.764;6.120;2023-04-24T03:28:09;98055.88;;;7.86;76.95
79048;BME280;68680;50.764;6.120;2023-04-24T03:30:35;98056.59;;;7.81;76.45
79048;BME280;68680;50.764;6.120;2023-04-24T03:33:01;98056.59;;;7.81;76.55
79048;BME280;68680;50.764;6.120;2023-04-24T03:35:26;98059.81;;;7.83;77.26
79048;BME280;68680;50.764;6.120;2023-04-24T03:37:52;98063.28;;;7.83;77.62
79048;BME280;68680;50.764;6.120;2023-04-24T03:40:19;98070.66;;;7.81;76.31
79048;BME280;68680;50.764;6.120;2023-04-24T03:42:44;98063.50;;;7.82;76.60
79048;BME280;68680;50.764;6.120;2023-04-24T03:45:10;98071.25;;;7.83;76.80
79048;BME280;68680;50.764;6.120;2023-04-24T03:47:36;98061.59;;;7.77;77.53
79048;BME280;68680;50.764;6.120;2023-04-24T03:50:01;98058.34;;;7.75;77.52
79048;BME280;68680;50.764;6.120;2023-04-24T03:52:27;98058.84;;;7.72;77.84
79048;BME280;68680;50.764;6.120;2023-04-24T03:54:52;98066.47;;;7.69;78.05
79048;BME280;68680;50.764;6.120;2023-04-24T03:57:19;98054.94;;;7.63;78.07
79048;BME280;68680;50.764;6.120;2023-04-24T03:59:45;98065.81;;;7.62;77.17
79048;BME280;68680;50.764;6.120;2023-04-24T04:02:11;98060.25;;;7.63;78.36
79048;BME280;68680;50.764;6.120;2023-04-24T04:04:36;98066.38;;;7.64;78.52
79048;BME280;68680;50.764;6.120;2023-04-24T04:07:02;98071.22;;;7.67;79.79
79048;BME280;68680;50.764;6.120;2023-04-24T04:09:27;98068.41;;;7.57;79.50
79048;BME280;68680;50.764;6.120;2023-04-24T04:11:53;98068.91;;;7.42;80.73
79048;BME280;68680;50.764;6.120;2023-04-24T04:14:20;98062.38;;;7.33;81.51
79048;BME280;68680;50.764;6.120;2023-04-24T04:16:46;98068.06;;;7.25;81.63
79048;BME280;68680;50.764;6.120;2023-04-24T04:19:11;98067.59;;;7.28;82.50
79048;BME280;68680;50.764;6.120;2023-04-24T04:21:37;98073.69;;;7.28;82.08
79048;BME280;68680;50.764;6.120;2023-04-24T04:24:02;98082.00;;;7.32;82.49
79048;BME280;68680;50.764;6.120;2023-04-24T04:26:28;98072.66;;;7.29;83.58
79048;BME280;68680;50.764;6.120;2023-04-24T04:28:54;98085.09;;;7.29;83.67
79048;BME280;68680;50.764;6.120;2023-04-24T04:31:21;98082.75;;;7.16;84.26
79048;BME280;68680;50.764;6.120;2023-04-24T04:33:46;98082.50;;;7.06;85.14
79048;BME280;68680;50.764;6.120;2023-04-24T04:36:12;98078.31;;;6.93;86.38
79048;BME280;68680;50.764;6.120;2023-04-24T04:38:37;98089.34;;;6.90;87.49
79048;BME280;68680;50.764;6.120;2023-04-24T04:41:03;98088.56;;;6.89;87.58
79048;BME280;68680;50.764;6.120;2023-04-24T04:43:29;98091.19;;;6.89;87.95
79048;BME280;68680;50.764;6.120;2023-04-24T04:45:54;98091.56;;;6.93;88.03
79048;BME280;68680;50.764;6.120;2023-04-24T04:48:21;98094.88;;;6.88;87.33
79048;BME280;68680;50.764;6.120;2023-04-24T04:50:47;98100.78;;;6.90;87.69
79048;BME280;68680;50.764;6.120;2023-04-24T04:53:13;98091.44;;;6.88;88.09
79048;BME280;68680;50.764;6.120;2023-04-24T04:55:38;98094.34;;;6.86;88.44
79048;BME280;68680;50.764;6.120;2023-04-24T04:58:04;98098.00;;;6.85;87.59
79048;BME280;68680;50.764;6.120;2023-04-24T05:00:30;98105.06;;;6.80;88.00
79048;BME280;68680;50.764;6.120;2023-04-24T05:02:55;98108.72;;;6.79;88.44
79048;BME280;68680;50.764;6.120;2023-04-24T05:05:22;98112.78;;;6.81;88.52
79048;BME280;68680;50.764;6.120;2023-04-24T05:07:48;98104.25;;;6.79;87.28
79048;BME280;68680;50.764;6.120;2023-04-24T05:10:13;98117.38;;;6.74;87.95
79048;BME280;68680;50.764;6.120;2023-04-24T05:12:39;98120.59;;;6.76;88.48
79048;BME280;68680;50.764;6.120;2023-04-24T05:15:05;98116.91;;;6.77;88.54
79048;BME280;68680;50.764;6.120;2023-04-24T05:17:31;98116.81;;;6.72;88.63
79048;BME280;68680;50.764;6.120;2023-04-24T05:19:57;98130.28;;;6.71;89.00
79048;BME280;68680;50.764;6.120;2023-04-24T05:22:24;98134.31;;;6.73;87.98
79048;BME280;68680;50.764;6.120;2023-04-24T05:24:49;98118.88;;;6.70;88.32
79048;BME280;68680;50.764;6.120;2023-04-24T05:27:15;98130.38;;;6.76;88.93
79048;BME280;68680;50.764;6.120;2023-04-24T05:29:40;98127.88;;;6.81;88.72
79048;BME280;68680;50.764;6.120;2023-04-24T05:32:06;98122.44;;;6.76;88.48
79048;BME280;68680;50.764;6.120;2023-04-24T05:34:32;98145.03;;;6.67;88.25
79048;BME280;68680;50.764;6.120;2023-04-24T05:36:57;98142.59;;;6.65;89.44
79048;BME280;68680;50.764;6.120;2023-04-24T05:39:24;98140.66;;;6.60;88.86
79048;BME280;68680;50.764;6.120;2023-04-24T05:41:50;98150.00;;;6.63;89.79
79048;BME280;68680;50.764;6.120;2023-04-24T05:44:16;98161.03;;;6.60;90.83
79048;BME280;68680;50.764;6.120;2023-04-24T05:46:41;98164.16;;;6.57;91.16
79048;BME280;68680;50.764;6.120;2023-04-24T05:49:07;98167.84;;;6.56;91.00
79048;BME280;68680;50.764;6.120;2023-04-24T05:51:33;98180.59;;;6.59;91.09
79048;BME280;68680;50.764;6.120;2023-04-24T05:53:58;98169.19;;;6.58;90.67
79048;BME280;68680;50.764;6.120;2023-04-24T05:56:25;98173.47;;;6.59;91.51
79048;BME280;68680;50.764;6.120;2023-04-24T05:58:51;98182.81;;;6.62;91.61
79048;BME280;68680;50.764;6.120;2023-04-24T06:01:16;98175.91;;;6.61;91.33
79048;BME280;68680;50.764;6.120;2023-04-24T06:03:42;98169.47;;;6.69;92.01
79048;BME280;68680;50.764;6.120;2023-04-24T06:06:08;98183.38;;;6.64;91.66
79048;BME280;68680;50.764;6.120;2023-04-24T06:08:34;98181.31;;;6.66;91.85
79048;BME280;68680;50.764;6.120;2023-04-24T06:10:59;98187.09;;;6.75;91.39
79048;BME280;68680;50.764;6.120;2023-04-24T06:13:26;98188.94;;;6.74;91.25
79048;BME280;68680;50.764;6.120;2023-04-24T06:15:52;98185.47;;;6.74;91.18
79048;BME280;68680;50.764;6.120;2023-04-24T06:18:18;98190.66;;;6.80;91.53
79048;BME280;68680;50.764;6.120;2023-04-24T06:20:44;98194.22;;;6.74;91.27
79048;BME280;68680;50.764;6.120;2023-04-24T06:23:10;98183.84;;;6.73;90.75
79048;BME280;68680;50.764;6.120;2023-04-24T06:25:35;98193.03;;;6.70;91.16
79048;BME280;68680;50.764;6.120;2023-04-24T06:28:01;98203.66;;;6.70;91.51
79048;BME280;68680;50.764;6.120;2023-04-24T06:30:28;98211.75;;;6.75;90.94
79048;BME280;68680;50.764;6.120;2023-04-24T06:32:54;98210.56;;;6.71;91.53
79048;BME280;68680;50.764;6.120;2023-04-24T06:35:19;98208.16;;;6.70;91.04
79048;BME280;68680;50.764;6.120;2023-04-24T06:37:45;98237.31;;;6.70;91.28
79048;BME280;68680;50.764;6.120;2023-04-24T06:40:11;98213.81;;;6.73;90.75
79048;BME280;68680;50.764;6.120;2023-04-24T06:42:37;98219.91;;;6.74;90.79
79048;BME280;68680;50.764;6.120;2023-04-24T06:45:03;98225.91;;;6.81;91.29
79048;BME280;68680;50.764;6.120;2023-04-24T06:47:30;98234.53;;;6.76;91.26
79048;BME280;68680;50.764;6.120;2023-04-24T06:49:56;98233.16;;;6.74;90.46
79048;BME280;68680;50.764;6.120;2023-04-24T06:52:22;98235.91;;;6.67;90.30
79048;BME280;68680;50.764;6.120;2023-04-24T06:54:48;98247.41;;;6.61;90.13
79048;BME280;68680;50.764;6.120;2023-04-24T06:57:13;98246.16;;;6.64;90.97
79048;BME280;68680;50.764;6.120;2023-04-24T06:59:39;98257.22;;;6.60;91.04
79048;BME280;68680;50.764;6.120;2023-04-24T07:02:05;98265.16;;;6.60;90.97
79048;BME280;68680;50.764;6.120;2023-04-24T07:04:32;98252.13;;;6.59;91.44
79048;BME280;68680;50.764;6.120;2023-04-24T07:06:57;98264.81;;;6.57;91.16
79048;BME280;68680;50.764;6.120;2023-04-24T07:09:23;98267.69;;;6.55;91.20
79048;BME280;68680;50.764;6.120;2023-04-24T07:11:49;98270.41;;;6.49;91.22
79048;BME280;68680;50.764;6.120;2023-04-24T07:14:15;98275.50;;;6.50;91.04
79048;BME280;68680;50.764;6.120;2023-04-24T07:16:41;98285.28;;;6.50;91.98
79048;BME280;68680;50.764;6.120;2023-04-24T07:19:07;98279.88;;;6.45;90.87
79048;BME280;68680;50.764;6.120;2023-04-24T07:21:34;98290.00;;;6.48;91.47
79048;BME280;68680;50.764;6.120;2023-04-24T07:24:00;98280.31;;;6.42;90.96
79048;BME280;68680;50.764;6.120;2023-04-24T07:26:26;98285.16;;;6.45;91.21
79048;BME280;68680;50.764;6.120;2023-04-24T07:28:52;98302.66;;;6.46;91.35
79048;BME280;68680;50.764;6.120;2023-04-24T07:31:17;98301.41;;;6.48;92.35
79048;BME280;68680;50.764;6.120;2023-04-24T07:33:43;98324.78;;;6.51;91.98
79048;BME280;68680;50.764;6.120;2023-04-24T07:36:09;98342.63;;;6.44;91.17
79048;BME280;68680;50.764;6.120;2023-04-24T07:38:36;98330.47;;;6.37;90.20
79048;BME280;68680;50.764;6.120;2023-04-24T07:41:01;98344.06;;;6.29;90.54
79048;BME280;68680;50.764;6.120;2023-04-24T07:43:27;98342.88;;;6.25;90.85
79048;BME280;68680;50.764;6.120;2023-04-24T07:45:53;98355.44;;;6.29;90.99
79048;BME280;68680;50.764;6.120;2023-04-24T07:48:19;98359.34;;;6.27;91.43
79048;BME280;68680;50.764;6.120;2023-04-24T07:50:45;98362.34;;;6.30;91.21
79048;BME280;68680;50.764;6.120;2023-04-24T07:53:11;98364.34;;;6.35;92.02
79048;BME280;68680;50.764;6.120;2023-04-24T07:55:38;98372.84;;;6.37;92.47
79048;BME280;68680;50.764;6.120;2023-04-24T07:58:03;98370.66;;;6.34;91.20
79048;BME280;68680;50.764;6.120;2023-04-24T08:00:29;98375.38;;;6.32;91.45
79048;BME280;68680;50.764;6.120;2023-04-24T08:02:55;98384.03;;;6.39;92.12
79048;BME280;68680;50.764;6.120;2023-04-24T08:05:20;98381.19;;;6.40;92.37
79048;BME280;68680;50.764;6.120;2023-04-24T08:07:46;98381.31;;;6.45;92.13
79048;BME280;68680;50.764;6.120;2023-04-24T08:10:12;98376.97;;;6.51;92.15
79048;BME280;68680;50.764;6.120;2023-04-24T08:12:39;98380.78;;;6.55;91.55
79048;BME280;68680;50.764;6.120;2023-04-24T08:15:05;98385.84;;;6.56;92.28
79048;BME280;68680;50.764;6.120;2023-04-24T08:17:32;98382.97;;;6.58;91.87
79048;BME280;68680;50.764;6.120;2023-04-24T08:19:57;98390.59;;;6.66;92.78
79048;BME280;68680;50.764;6.120;2023-04-24T08:22:23;98394.41;;;6.70;91.93
79048;BME280;68680;50.764;6.120;2023-04-24T08:24:49;98410.31;;;6.70;91.83
79048;BME280;68680;50.764;6.120;2023-04-24T08:27:14;98409.88;;;6.73;91.99
79048;BME280;68680;50.764;6.120;2023-04-24T08:29:41;98410.22;;;6.77;91.48
79048;BME280;68680;50.764;6.120;2023-04-24T08:32:07;98421.06;;;6.75;91.70
79048;BME280;68680;50.764;6.120;2023-04-24T08:34:32;98434.78;;;6.84;90.94
79048;BME280;68680;50.764;6.120;2023-04-24T08:36:58;98425.25;;;6.94;91.06
79048;BME280;68680;50.764;6.120;2023-04-24T08:39:24;98431.03;;;6.91;90.51
79048;BME280;68680;50.764;6.120;2023-04-24T08:41:50;98439.66;;;6.87;90.45
79048;BME280;68680;50.764;6.120;2023-04-24T08:44:16;98437.91;;;6.81;91.70
79048;BME280;68680;50.764;6.120;2023-04-24T08:46:43;98442.25;;;6.75;91.60
79048;BME280;68680;50.764;6.120;2023-04-24T08:49:09;98454.31;;;6.71;92.07
79048;BME280;68680;50.764;6.120;2023-04-24T08:51:36;98453.28;;;6.72;92.35
79048;BME280;68680;50.764;6.120;2023-04-24T08:54:02;98445.69;;;6.76;91.98
79048;BME280;68680;50.764;6.120;2023-04-24T08:56:28;98463.59;;;6.80;92.96
79048;BME280;68680;50.764;6.120;2023-04-24T08:58:54;98456.59;;;6.86;92.84
79048;BME280;68680;50.764;6.120;2023-04-24T09:01:20;98463.00;;;6.78;92.60
79048;BME280;68680;50.764;6.120;2023-04-24T09:03:48;98456.09;;;6.77;91.89
79048;BME280;68680;50.764;6.120;2023-04-24T09:06:14;98473.94;;;6.82;92.44
79048;BME280;68680;50.764;6.120;2023-04-24T09:08:43;98474.47;;;6.90;92.84
79048;BME280;68680;50.764;6.120;2023-04-24T09:11:11;98481.81;;;6.88;91.61
79048;BME280;68680;50.764;6.120;2023-04-24T09:13:37;98483.81;;;6.93;92.10
79048;BME280;68680;50.764;6.120;2023-04-24T09:16:03;98505.59;;;6.95;92.10
79048;BME280;68680;50.764;6.120;2023-04-24T09:18:29;98496.03;;;6.94;91.67
79048;BME280;68680;50.764;6.120;2023-04-24T09:21:00;98495.81;;;6.95;91.74
79048;BME280;68680;50.764;6.120;2023-04-24T09:23:27;98495.97;;;7.12;92.11
79048;BME280;68680;50.764;6.120;2023-04-24T09:25:54;98499.16;;;7.21;91.80
79048;BME280;68680;50.764;6.120;2023-04-24T09:28:25;98513.69;;;7.30;90.71
79048;BME280;68680;50.764;6.120;2023-04-24T09:31:05;98508.06;;;7.38;91.00
79048;BME280;68680;50.764;6.120;2023-04-24T09:33:31;98515.00;;;7.39;89.73
79048;BME280;68680;50.764;6.120;2023-04-24T09:35:56;98519.66;;;7.55;89.70
79048;BME280;68680;50.764;6.120;2023-04-24T09:38:32;98530.19;;;7.73;90.02
79048;BME280;68680;50.764;6.120;2023-04-24T09:40:59;98524.53;;;7.70;88.87
79048;BME280;68680;50.764;6.120;2023-04-24T09:43:26;98527.44;;;7.80;89.01
79048;BME280;68680;50.764;6.120;2023-04-24T09:45:55;98533.31;;;7.82;88.73
79048;BME280;68680;50.764;6.120;2023-04-24T09:48:29;98535.75;;;7.83;88.48
79048;BME280;68680;50.764;6.120;2023-04-24T09:50:55;98546.25;;;7.78;88.14
79048;BME280;68680;50.764;6.120;2023-04-24T09:53:24;98547.06;;;7.91;89.00
79048;BME280;68680;50.764;6.120;2023-04-24T09:55:51;98548.81;;;7.97;87.51
79048;BME280;68680;50.764;6.120;2023-04-24T09:58:17;98542.00;;;7.89;86.55
79048;BME280;68680;50.764;6.120;2023-04-24T10:00:42;98553.66;;;8.11;89.26
79048;BME280;68680;50.764;6.120;2023-04-24T10:03:08;98548.72;;;8.27;86.72
79048;BME280;68680;50.764;6.120;2023-04-24T10:05:35;98550.09;;;8.29;83.78
79048;BME280;68680;50.764;6.120;2023-04-24T10:08:02;98553.69;;;8.46;86.61
79048;BME280;68680;50.764;6.120;2023-04-24T10:10:28;98549.88;;;8.77;85.54
79048;BME280;68680;50.764;6.120;2023-04-24T10:12:56;98559.88;;;8.87;84.34
79048;BME280;68680;50.764;6.120;2023-04-24T10:15:22;98562.00;;;8.85;83.71
79048;BME280;68680;50.764;6.120;2023-04-24T10:17:48;98558.03;;;8.87;82.08
79048;BME280;68680;50.764;6.120;2023-04-24T10:20:15;98566.59;;;9.29;85.06
79048;BME280;68680;50.764;6.120;2023-04-24T10:22:40;98571.97;;;9.18;79.90
79048;BME280;68680;50.764;6.120;2023-04-24T10:25:07;98575.47;;;9.06;83.35
79048;BME280;68680;50.764;6.120;2023-04-24T10:27:34;98566.09;;;9.04;80.13
79048;BME280;68680;50.764;6.120;2023-04-24T10:30:01;98572.44;;;9.03;80.63
79048;BME280;68680;50.764;6.120;2023-04-24T10:32:27;98578.00;;;9.13;81.50
79048;BME280;68680;50.764;6.120;2023-04-24T10:34:54;98570.88;;;9.30;80.67
79048;BME280;68680;50.764;6.120;2023-04-24T10:37:20;98575.72;;;9.33;80.33
79048;BME280;68680;50.764;6.120;2023-04-24T10:39:47;98575.81;;;9.38;79.20
79048;BME280;68680;50.764;6.120;2023-04-24T10:42:14;98575.97;;;9.60;82.78
79048;BME280;68680;50.764;6.120;2023-04-24T10:44:40;98581.94;;;9.67;77.28
79048;BME280;68680;50.764;6.120;2023-04-24T10:47:12;98581.97;;;9.56;79.65
79048;BME280;68680;50.764;6.120;2023-04-24T10:49:38;98592.25;;;9.64;80.03
79048;BME280;68680;50.764;6.120;2023-04-24T10:52:04;98584.53;;;9.79;77.21
79048;BME280;68680;50.764;6.120;2023-04-24T10:54:34;98586.56;;;9.72;77.41
79048;BME280;68680;50.764;6.120;2023-04-24T11:00:14;98594.25;;;9.28;79.73
79048;BME280;68680;50.764;6.120;2023-04-24T11:02:41;98606.31;;;9.19;80.71
79048;BME280;68680;50.764;6.120;2023-04-24T11:05:08;98604.03;;;8.99;79.17
79048;BME280;68680;50.764;6.120;2023-04-24T11:10:32;98621.06;;;8.52;82.48
79048;BME280;68680;50.764;6.120;2023-04-24T11:12:58;98617.84;;;8.38;83.52
79048;BME280;68680;50.764;6.120;2023-04-24T11:15:24;98620.13;;;8.46;84.64
79048;BME280;68680;50.764;6.120;2023-04-24T11:17:55;98622.56;;;8.83;84.70
79048;BME280;68680;50.764;6.120;2023-04-24T11:20:23;98631.28;;;9.18;82.79
79048;BME280;68680;50.764;6.120;2023-04-24T11:22:52;98627.50;;;9.54;81.48
79048;BME280;68680;50.764;6.120;2023-04-24T11:25:18;98638.91;;;9.66;78.86
79048;BME280;68680;50.764;6.120;2023-04-24T11:27:44;98638.50;;;9.46;78.49
79048;BME280;68680;50.764;6.120;2023-04-24T11:30:10;98633.25;;;9.23;78.07
79048;BME280;68680;50.764;6.120;2023-04-24T11:32:37;98634.03;;;9.35;79.00
79048;BME280;68680;50.764;6.120;2023-04-24T11:35:06;98628.13;;;9.33;77.30
79048;BME280;68680;50.764;6.120;2023-04-24T11:37:34;98638.47;;;9.58;79.82
79048;BME280;68680;50.764;6.120;2023-04-24T11:40:00;98645.00;;;9.67;77.07
79048;BME280;68680;50.764;6.120;2023-04-24T11:42:27;98646.19;;;9.71;76.49
79048;BME280;68680;50.764;6.120;2023-04-24T11:44:54;98635.72;;;9.98;75.50
79048;BME280;68680;50.764;6.120;2023-04-24T11:47:19;98652.16;;;10.06;74.71
79048;BME280;68680;50.764;6.120;2023-04-24T11:49:45;98646.22;;;9.87;73.84
79048;BME280;68680;50.764;6.120;2023-04-24T11:52:15;98652.91;;;9.90;74.50
79048;BME280;68680;50.764;6.120;2023-04-24T11:54:48;98656.72;;;9.66;73.92
79048;BME280;68680;50.764;6.120;2023-04-24T11:57:13;98663.50;;;9.45;72.76
79048;BME280;68680;50.764;6.120;2023-04-24T11:59:39;98663.63;;;9.38;73.66
79048;BME280;68680;50.764;6.120;2023-04-24T12:02:05;98663.06;;;9.36;72.59
79048;BME280;68680;50.764;6.120;2023-04-24T12:04:38;98665.97;;;9.35;72.84
79048;BME280;68680;50.764;6.120;2023-04-24T12:07:04;98667.34;;;9.37;71.59
79048;BME280;68680;50.764;6.120;2023-04-24T12:09:41;98672.81;;;9.71;73.30
79048;BME280;68680;50.764;6.120;2023-04-24T12:12:07;98677.84;;;10.12;69.65
79048;BME280;68680;50.764;6.120;2023-04-24T12:14:33;98678.94;;;10.28;71.35
79048;BME280;68680;50.764;6.120;2023-04-24T12:17:06;98677.56;;;10.14;69.52
79048;BME280;68680;50.764;6.120;2023-04-24T12:19:32;98687.06;;;9.93;70.83
79048;BME280;68680;50.764;6.120;2023-04-24T12:21:59;98684.22;;;9.83;71.66
79048;BME280;68680;50.764;6.120;2023-04-24T12:24:25;98687.06;;;9.65;72.59
79048;BME280;68680;50.764;6.120;2023-04-24T12:26:52;98681.69;;;9.76;71.80
79048;BME280;68680;50.764;6.120;2023-04-24T12:29:19;98683.41;;;9.82;71.05
79048;BME280;68680;50.764;6.120;2023-04-24T12:31:45;98686.63;;;10.13;69.69
79048;BME280;68680;50.764;6.120;2023-04-24T12:34:17;98689.88;;;11.15;67.49
79048;BME280;68680;50.764;6.120;2023-04-24T12:36:43;98687.50;;;12.06;64.25
79048;BME280;68680;50.764;6.120;2023-04-24T12:39:14;98676.69;;;12.49;62.71
79048;BME280;68680;50.764;6.120;2023-04-24T12:41:53;98676.19;;;12.89;61.65
79048;BME280;68680;50.764;6.120;2023-04-24T12:44:19;98683.53;;;11.81;62.73
79048;BME280;68680;50.764;6.120;2023-04-24T12:46:45;98683.84;;;11.41;63.81
79048;BME280;68680;50.764;6.120;2023-04-24T12:49:10;98678.03;;;11.06;63.52
79048;BME280;68680;50.764;6.120;2023-04-24T12:51:36;98693.34;;;10.77;66.17
79048;BME280;68680;50.764;6.120;2023-04-24T12:54:02;98696.56;;;10.46;66.98
79048;BME280;68680;50.764;6.120;2023-04-24T12:56:28;98699.22;;;10.62;65.49
79048;BME280;68680;50.764;6.120;2023-04-24T12:58:55;98699.72;;;10.59;65.08
79048;BME280;68680;50.764;6.120;2023-04-24T13:01:20;98698.31;;;10.40;65.73
79048;BME280;68680;50.764;6.120;2023-04-24T13:03:46;98704.38;;;10.36;65.23
79048;BME280;68680;50.764;6.120;2023-04-24T13:06:12;98706.25;;;10.52;66.24
79048;BME280;68680;50.764;6.120;2023-04-24T13:08:38;98716.63;;;10.65;64.69
79048;BME280;68680;50.764;6.120;2023-04-24T13:11:03;98712.25;;;10.76;62.75